Time;durP1;ratioP1;P1;durP2;ratioP2;P2;SDS_P1;SDS_P2;PMS_P1;PMS_P2;Temp;Humidity;BMP_temperature;BMP_pressure;BME280_temperature;BME280_humidity;BME280_pressure;Samples;Min_cycle;Max_cycle;Signal;HPM_P1;HPM_P2
2023/04/10 00:01:31;;;;;;;9.45;6.75;;;;;15.80;101934.00;;;;5012086;28;20241;-79
2023/04/10 00:03:58;;;;;;;7.85;6.32;;;;;15.80;101932.00;;;;5010100;28;20263;-78
2023/04/10 00:06:26;;;;;;;8.65;6.38;;;;;15.70;101912.00;;;;5008181;28;20205;-80
2023/04/10 00:08:55;;;;;;;8.52;7.10;;;;;15.70;101903.00;;;;5011432;28;20193;-80
2023/04/10 00:11:22;;;;;;;8.25;6.47;;;;;15.70;101903.00;;;;5010908;28;20236;-80
2023/04/10 00:13:50;;;;;;;9.15;6.75;;;;;15.70;101899.00;;;;5006805;28;20205;-80
2023/04/10 00:16:17;;;;;;;9.45;6.75;;;;;15.70;101907.00;;;;5010516;28;20207;-77
2023/04/10 00:18:44;;;;;;;9.73;6.72;;;;;15.60;101900.00;;;;5009948;28;20200;-77
2023/04/10 00:21:12;;;;;;;9.13;7.07;;;;;15.60;101899.00;;;;5010665;28;20207;-78
2023/04/10 00:23:39;;;;;;;11.77;7.20;;;;;15.60;101897.00;;;;5007955;28;20193;-77
2023/04/10 00:26:08;;;;;;;10.40;6.97;;;;;15.60;101889.00;;;;5009917;28;20224;-78
2023/04/10 00:28:36;;;;;;;7.95;6.22;;;;;15.60;101884.00;;;;5010293;28;20205;-78
2023/04/10 00:31:04;;;;;;;8.88;6.60;;;;;15.60;101869.00;;;;5009546;28;20248;-78
2023/04/10 00:33:31;;;;;;;9.15;6.55;;;;;15.50;101872.00;;;;5010584;28;20189;-78
2023/04/10 00:35:59;;;;;;;9.10;6.93;;;;;15.50;101871.00;;;;5009338;28;20574;-78
2023/04/10 00:38:26;;;;;;;8.18;6.20;;;;;15.50;101871.00;;;;5010262;28;20209;-78
2023/04/10 00:40:53;;;;;;;9.05;6.72;;;;;15.50;101860.00;;;;4994625;28;20210;-78
2023/04/10 00:43:23;;;;;;;9.27;6.50;;;;;15.40;101869.00;;;;5006937;28;20230;-77
2023/04/10 00:45:50;;;;;;;8.02;6.40;;;;;15.40;101861.00;;;;5010399;28;20659;-78
2023/04/10 00:48:18;;;;;;;8.75;6.53;;;;;15.40;101858.00;;;;5011998;28;20200;-79
2023/04/10 00:50:46;;;;;;;9.38;6.72;;;;;15.40;101860.00;;;;5009956;28;20225;-79
2023/04/10 00:53:14;;;;;;;8.15;6.60;;;;;15.40;101855.00;;;;5007879;28;20194;-78
2023/04/10 00:55:42;;;;;;;8.32;6.50;;;;;15.40;101856.00;;;;5009543;28;20270;-78
2023/04/10 00:58:13;;;;;;;9.07;5.88;;;;;15.30;101852.00;;;;5002983;28;20208;-79
2023/04/10 01:00:42;;;;;;;7.15;5.97;;;;;15.30;101841.00;;;;5008199;28;20699;-78
2023/04/10 01:03:11;;;;;;;7.53;5.25;;;;;15.30;101845.00;;;;5008998;28;20219;-78
2023/04/10 01:05:45;;;;;;;9.38;6.25;;;;;15.20;101844.00;;;;5009053;28;20189;-78
2023/04/10 01:08:18;;;;;;;7.97;6.15;;;;;15.20;101837.00;;;;5009360;28;20208;-78
2023/04/10 01:10:50;;;;;;;9.45;6.07;;;;;15.20;101832.00;;;;5009582;28;20318;-79
2023/04/10 01:13:25;;;;;;;7.80;5.95;;;;;15.20;101833.00;;;;5008101;28;20656;-79
2023/04/10 01:16:01;;;;;;;8.13;6.10;;;;;15.20;101844.00;;;;5007466;28;20196;-78
2023/04/10 01:18:34;;;;;;;8.77;5.90;;;;;15.20;101838.00;;;;5011231;28;20212;-78
2023/04/10 01:21:06;;;;;;;7.75;5.38;;;;;15.20;101827.00;;;;5011325;28;20204;-78
2023/04/10 01:24:16;;;;;;;8.52;5.82;;;;;15.00;101828.00;;;;5010423;28;20232;-78
2023/04/10 01:27:10;;;;;;;7.07;5.35;;;;;15.10;101820.00;;;;5004129;28;20255;-78
2023/04/10 01:29:45;;;;;;;7.63;5.82;;;;;15.10;101818.00;;;;4998726;28;20255;-78
2023/04/10 01:32:16;;;;;;;7.20;5.10;;;;;15.10;101823.00;;;;5009509;28;20211;-78
2023/04/10 01:34:46;;;;;;;6.60;5.40;;;;;15.10;101813.00;;;;5010440;28;20193;-78
2023/04/10 01:37:18;;;;;;;8.52;5.60;;;;;15.00;101809.00;;;;5010844;28;20197;-78
2023/04/10 01:39:50;;;;;;;7.85;6.10;;;;;15.00;101807.00;;;;5010564;28;20211;-78
2023/04/10 01:42:19;;;;;;;7.30;5.68;;;;;15.00;101812.00;;;;4994394;28;20194;-79
2023/04/10 01:44:48;;;;;;;6.75;5.25;;;;;15.00;101805.00;;;;4996587;28;20197;-78
2023/04/10 01:47:17;;;;;;;8.98;6.32;;;;;15.00;101798.00;;;;5008164;28;20224;-79
2023/04/10 01:49:46;;;;;;;6.88;5.40;;;;;15.00;101790.00;;;;5003554;28;20208;-78
2023/04/10 01:52:15;;;;;;;7.63;5.45;;;;;15.00;101798.00;;;;5010147;28;20193;-79
2023/04/10 01:54:44;;;;;;;10.15;5.35;;;;;15.00;101790.00;;;;5007960;28;20640;-80
2023/04/10 01:57:13;;;;;;;8.98;5.70;;;;;15.00;101794.00;;;;5004901;28;20574;-79
2023/04/10 01:59:41;;;;;;;7.32;5.57;;;;;14.90;101794.00;;;;5010073;28;20212;-79
2023/04/10 02:02:10;;;;;;;7.57;5.80;;;;;14.90;101794.00;;;;5010417;28;20197;-78
2023/04/10 02:04:38;;;;;;;6.32;5.13;;;;;14.90;101788.00;;;;5007716;28;20733;-78
2023/04/10 02:07:11;;;;;;;5.63;4.65;;;;;14.90;101785.00;;;;5008901;28;20197;-78
2023/04/10 02:09:47;;;;;;;7.22;5.57;;;;;14.90;101784.00;;;;5009773;28;20193;-79
2023/04/10 02:12:18;;;;;;;6.97;4.82;;;;;14.90;101788.00;;;;5009536;28;20200;-78
2023/04/10 02:14:48;;;;;;;6.82;4.57;;;;;14.90;101790.00;;;;5007373;28;20197;-78
2023/04/10 02:17:22;;;;;;;6.15;4.63;;;;;14.80;101789.00;;;;5008279;28;20236;-78
2023/04/10 02:19:53;;;;;;;5.95;4.53;;;;;14.90;101783.00;;;;5006510;28;20207;-78
2023/04/10 02:22:20;;;;;;;6.07;4.88;;;;;14.90;101784.00;;;;4998369;28;20236;-78
2023/04/10 02:24:48;;;;;;;6.90;5.57;;;;;14.90;101776.00;;;;5006920;28;20204;-78
2023/04/10 02:27:26;;;;;;;6.60;5.10;;;;;14.90;101781.00;;;;5009611;28;20209;-78
2023/04/10 02:29:53;;;;;;;6.68;4.90;;;;;14.90;101786.00;;;;5005682;28;20201;-78
2023/04/10 02:32:22;;;;;;;6.47;4.85;;;;;14.80;101776.00;;;;5007140;28;20300;-78
2023/04/10 02:34:49;;;;;;;5.47;4.53;;;;;14.90;101780.00;;;;5005654;28;21211;-78
2023/04/10 02:37:18;;;;;;;5.57;4.63;;;;;14.80;101772.00;;;;5007864;28;20201;-78
2023/04/10 02:39:45;;;;;;;6.28;4.80;;;;;14.90;101778.00;;;;5006086;28;20201;-78
2023/04/10 02:42:12;;;;;;;6.93;5.22;;;;;14.80;101779.00;;;;5008302;28;20332;-78
2023/04/10 02:44:40;;;;;;;6.15;4.63;;;;;14.80;101774.00;;;;5013675;28;20196;-78
2023/04/10 02:47:08;;;;;;;7.95;5.43;;;;;14.80;101770.00;;;;5009731;28;20201;-77
2023/04/10 02:49:37;;;;;;;6.28;4.95;;;;;14.80;101779.00;;;;5012029;28;20204;-77
2023/04/10 02:52:04;;;;;;;5.80;4.72;;;;;14.80;101777.00;;;;5010530;28;20220;-79
2023/04/10 02:54:32;;;;;;;6.57;4.68;;;;;14.80;101776.00;;;;5010232;28;20207;-78
2023/04/10 02:57:00;;;;;;;5.90;4.38;;;;;14.80;101778.00;;;;4995130;28;20600;-79
2023/04/10 02:59:27;;;;;;;6.30;5.15;;;;;14.80;101779.00;;;;4991938;28;20224;-79
2023/04/10 03:01:54;;;;;;;6.97;5.25;;;;;14.80;101779.00;;;;4967978;28;20214;-77
2023/04/10 03:04:22;;;;;;;6.43;4.97;;;;;14.80;101783.00;;;;4971667;28;20202;-78
2023/04/10 03:06:50;;;;;;;6.63;4.93;;;;;14.70;101779.00;;;;4973104;28;20205;-79
2023/04/10 03:09:19;;;;;;;7.15;5.40;;;;;14.70;101782.00;;;;4972484;28;20194;-79
2023/04/10 03:11:47;;;;;;;6.40;4.43;;;;;14.70;101781.00;;;;4972304;28;20229;-78
2023/04/10 03:14:14;;;;;;;6.63;4.63;;;;;14.70;101779.00;;;;4957384;28;20217;-77
2023/04/10 03:16:41;;;;;;;6.20;4.82;;;;;14.70;101781.00;;;;4973612;28;20576;-78
2023/04/10 03:19:09;;;;;;;6.13;4.32;;;;;14.70;101787.00;;;;4971263;28;20695;-78
2023/04/10 03:21:37;;;;;;;7.30;4.68;;;;;14.70;101783.00;;;;4973569;28;20249;-78
2023/04/10 03:24:06;;;;;;;5.93;5.00;;;;;14.60;101775.00;;;;4969761;28;20202;-79
2023/04/10 03:26:33;;;;;;;5.20;4.13;;;;;14.70;101779.00;;;;4970004;28;20205;-79
2023/04/10 03:29:01;;;;;;;6.30;4.28;;;;;14.60;101768.00;;;;4969041;28;20215;-79
2023/04/10 03:31:28;;;;;;;6.75;4.65;;;;;14.60;101771.00;;;;4950264;28;20231;-79
2023/04/10 03:33:56;;;;;;;5.95;4.60;;;;;14.60;101766.00;;;;4954136;28;20198;-79
2023/04/10 03:36:23;;;;;;;6.78;4.90;;;;;14.60;101770.00;;;;4968068;28;20202;-79
2023/04/10 03:38:51;;;;;;;6.68;4.75;;;;;14.60;101771.00;;;;4969600;28;20211;-79
2023/04/10 03:41:20;;;;;;;6.20;4.55;;;;;14.60;101764.00;;;;4966861;28;20202;-77
2023/04/10 03:43:47;;;;;;;6.15;5.25;;;;;14.50;101756.00;;;;4967900;28;20612;-79
2023/04/10 03:46:15;;;;;;;7.38;5.07;;;;;14.50;101758.00;;;;4965687;28;20236;-78
2023/04/10 03:48:42;;;;;;;6.88;5.05;;;;;14.50;101759.00;;;;4958732;28;20791;-78
2023/04/10 03:51:09;;;;;;;7.60;5.10;;;;;14.50;101758.00;;;;4964332;28;20238;-79
2023/04/10 03:53:37;;;;;;;7.82;5.43;;;;;14.50;101753.00;;;;4957101;28;20676;-79
2023/04/10 03:56:05;;;;;;;6.53;4.47;;;;;14.50;101752.00;;;;4965533;28;20194;-79
2023/04/10 03:58:33;;;;;;;5.68;4.82;;;;;14.40;101748.00;;;;4969068;28;20227;-79
2023/04/10 04:01:01;;;;;;;6.13;4.90;;;;;14.40;101744.00;;;;4992741;28;20240;-79
2023/04/10 04:03:28;;;;;;;6.28;5.13;;;;;14.40;101736.00;;;;5002496;28;20201;-78
2023/04/10 04:05:56;;;;;;;6.28;4.88;;;;;14.40;101731.00;;;;5000546;28;20937;-78
2023/04/10 04:08:23;;;;;;;6.15;4.97;;;;;14.40;101731.00;;;;5007118;28;20204;-79
2023/04/10 04:10:50;;;;;;;7.10;4.97;;;;;14.40;101729.00;;;;5007029;28;20687;-78
2023/04/10 04:13:17;;;;;;;6.15;4.35;;;;;14.40;101724.00;;;;5006604;28;20682;-78
2023/04/10 04:15:47;;;;;;;7.47;5.35;;;;;14.30;101724.00;;;;5006389;28;20193;-79
2023/04/10 04:18:14;;;;;;;6.20;4.78;;;;;14.30;101719.00;;;;5007048;28;20201;-79
2023/04/10 04:20:42;;;;;;;5.85;4.75;;;;;14.30;101712.00;;;;5002384;28;20202;-78
2023/04/10 04:23:09;;;;;;;7.18;4.65;;;;;14.30;101725.00;;;;4990724;28;20200;-78
2023/04/10 04:25:36;;;;;;;6.85;4.35;;;;;14.30;101721.00;;;;5003252;28;20198;-79
2023/04/10 04:28:04;;;;;;;6.18;4.43;;;;;14.30;101723.00;;;;4987805;28;20209;-79
2023/04/10 04:30:32;;;;;;;7.22;5.28;;;;;14.30;101723.00;;;;5000925;28;20618;-78
2023/04/10 04:33:00;;;;;;;7.22;5.60;;;;;14.30;101718.00;;;;5005272;28;20209;-79
2023/04/10 04:35:27;;;;;;;9.82;5.40;;;;;14.30;101716.00;;;;5005079;28;20205;-79
2023/04/10 04:37:55;;;;;;;7.40;5.57;;;;;14.30;101718.00;;;;4999373;28;20213;-78
2023/04/10 04:40:22;;;;;;;5.60;4.57;;;;;14.30;101718.00;;;;4988881;28;20197;-78
2023/04/10 04:42:49;;;;;;;7.35;5.45;;;;;14.30;101715.00;;;;5008419;28;20197;-78
2023/04/10 04:45:17;;;;;;;5.53;4.72;;;;;14.30;101710.00;;;;5010362;28;20197;-78
2023/04/10 04:47:44;;;;;;;6.50;5.15;;;;;14.30;101711.00;;;;5010599;28;20201;-78
2023/04/10 04:50:13;;;;;;;7.63;6.13;;;;;14.20;101708.00;;;;5010475;28;20201;-79
2023/04/10 04:52:40;;;;;;;7.45;5.40;;;;;14.30;101713.00;;;;5003556;28;20220;-79
2023/04/10 04:55:08;;;;;;;8.07;5.93;;;;;14.30;101707.00;;;;5004709;28;20212;-78
2023/04/10 04:57:36;;;;;;;6.55;5.65;;;;;14.20;101708.00;;;;5008297;28;20200;-79
2023/04/10 05:00:03;;;;;;;7.43;5.28;;;;;14.20;101710.00;;;;5013291;28;20228;-79
2023/04/10 05:02:30;;;;;;;7.03;5.75;;;;;14.20;101711.00;;;;5008141;28;20205;-78
2023/04/10 05:04:58;;;;;;;6.20;4.85;;;;;14.20;101704.00;;;;5004567;28;20208;-78
2023/04/10 05:07:28;;;;;;;8.27;5.60;;;;;14.20;101709.00;;;;4991091;28;20208;-79
2023/04/10 05:09:57;;;;;;;7.13;5.32;;;;;14.20;101702.00;;;;5007311;28;20208;-78
2023/04/10 05:12:24;;;;;;;6.47;5.45;;;;;14.20;101697.00;;;;4998767;28;20781;-77
2023/04/10 05:14:51;;;;;;;6.72;4.90;;;;;14.20;101694.00;;;;4991635;28;20201;-78
2023/04/10 05:17:19;;;;;;;7.00;5.25;;;;;14.20;101696.00;;;;4994013;28;20195;-79
2023/04/10 05:19:46;;;;;;;7.13;5.28;;;;;14.20;101696.00;;;;5010527;28;20211;-77
2023/04/10 05:22:14;;;;;;;7.22;5.95;;;;;14.20;101696.00;;;;5009312;28;20201;-78
2023/04/10 05:24:43;;;;;;;8.02;6.40;;;;;14.20;101709.00;;;;5009555;28;20237;-77
2023/04/10 05:27:10;;;;;;;9.38;5.80;;;;;14.30;101707.00;;;;5010271;28;20837;-77
2023/04/10 05:29:37;;;;;;;7.32;5.47;;;;;14.30;101693.00;;;;5010594;28;20251;-78
2023/04/10 05:32:05;;;;;;;7.20;5.40;;;;;14.30;101687.00;;;;5010389;28;20221;-79
2023/04/10 05:34:35;;;;;;;11.57;6.00;;;;;14.30;101679.00;;;;5008326;28;20201;-77
2023/04/10 05:37:04;;;;;;;7.20;5.68;;;;;14.40;101684.00;;;;5004503;28;20210;-77
2023/04/10 05:39:32;;;;;;;7.07;5.57;;;;;14.40;101692.00;;;;5009828;28;20201;-78
2023/04/10 05:42:02;;;;;;;7.65;5.88;;;;;14.40;101684.00;;;;5008946;28;20212;-79
2023/04/10 05:44:29;;;;;;;7.00;5.75;;;;;14.40;101690.00;;;;5010714;28;20287;-79
2023/04/10 05:46:58;;;;;;;7.47;5.78;;;;;14.40;101680.00;;;;4993624;28;20668;-79
2023/04/10 05:49:26;;;;;;;6.85;5.70;;;;;14.40;101683.00;;;;4990341;28;20229;-79
2023/04/10 05:51:53;;;;;;;7.63;5.95;;;;;14.50;101687.00;;;;4991002;28;20202;-78
2023/04/10 05:54:21;;;;;;;6.40;5.00;;;;;14.50;101682.00;;;;4992219;28;20427;-78
2023/04/10 05:56:48;;;;;;;7.18;5.15;;;;;14.50;101683.00;;;;5010497;28;20197;-79
2023/04/10 05:59:17;;;;;;;7.82;5.47;;;;;14.60;101691.00;;;;5006035;28;20227;-79
2023/04/10 06:01:45;;;;;;;6.22;5.18;;;;;14.60;101682.00;;;;5005928;28;20238;-79
2023/04/10 06:04:12;;;;;;;7.82;6.03;;;;;14.70;101682.00;;;;5003213;28;20220;-78
2023/04/10 06:06:40;;;;;;;7.68;5.20;;;;;14.70;101670.00;;;;5007058;28;20194;-79
2023/04/10 06:09:07;;;;;;;7.57;5.78;;;;;14.70;101672.00;;;;5003205;28;20237;-78
2023/04/10 06:11:35;;;;;;;6.40;5.70;;;;;14.70;101678.00;;;;5004371;28;20217;-77
2023/04/10 06:14:03;;;;;;;7.63;6.05;;;;;14.80;101679.00;;;;5009388;28;20296;-77
2023/04/10 06:16:32;;;;;;;6.88;5.28;;;;;14.80;101668.00;;;;5007145;28;20212;-77
2023/04/10 06:18:59;;;;;;;6.93;5.78;;;;;14.80;101666.00;;;;5000593;28;20295;-78
2023/04/10 06:21:27;;;;;;;7.15;5.65;;;;;14.90;101660.00;;;;5002697;28;20279;-79
2023/04/10 06:23:57;;;;;;;6.05;5.13;;;;;14.90;101660.00;;;;5008713;28;20251;-78
2023/04/10 06:26:25;;;;;;;7.63;6.28;;;;;15.00;101652.00;;;;5007036;28;20651;-78
2023/04/10 06:28:53;;;;;;;6.90;5.68;;;;;15.00;101660.00;;;;5009755;28;20209;-77
2023/04/10 06:31:21;;;;;;;6.60;5.72;;;;;15.10;101646.00;;;;5004095;28;20207;-77
2023/04/10 06:33:52;;;;;;;6.57;4.85;;;;;15.10;101645.00;;;;5006330;28;20233;-78
2023/04/10 06:36:23;;;;;;;6.97;5.47;;;;;15.20;101636.00;;;;5005275;28;20193;-77
2023/04/10 06:38:50;;;;;;;7.00;5.82;;;;;15.20;101625.00;;;;5009137;28;20685;-79
2023/04/10 06:41:19;;;;;;;7.97;6.50;;;;;15.20;101626.00;;;;5008480;28;20197;-78
2023/04/10 06:43:47;;;;;;;8.73;6.05;;;;;15.30;101626.00;;;;4999805;28;20200;-78
2023/04/10 06:46:16;;;;;;;6.63;5.68;;;;;15.40;101621.00;;;;5007208;28;20205;-78
2023/04/10 06:48:43;;;;;;;5.93;4.75;;;;;15.40;101619.00;;;;5005662;28;20219;-78
2023/04/10 06:51:12;;;;;;;8.88;5.82;;;;;15.40;101608.00;;;;5009045;28;20197;-78
2023/04/10 06:53:40;;;;;;;8.15;5.82;;;;;15.50;101608.00;;;;5007264;28;20196;-79
2023/04/10 06:56:08;;;;;;;7.55;5.72;;;;;15.50;101612.00;;;;5007493;28;20205;-77
2023/04/10 06:58:36;;;;;;;6.75;5.32;;;;;15.60;101607.00;;;;5005289;28;20201;-78
2023/04/10 07:01:03;;;;;;;7.28;5.53;;;;;15.70;101600.00;;;;5008365;28;20228;-79
2023/04/10 07:03:31;;;;;;;7.43;5.38;;;;;15.70;101597.00;;;;5002373;28;20235;-78
2023/04/10 07:06:03;;;;;;;7.03;5.35;;;;;15.70;101591.00;;;;4999329;28;20208;-79
2023/04/10 07:08:31;;;;;;;7.80;5.45;;;;;15.80;101586.00;;;;5006673;28;20251;-79
2023/04/10 07:10:59;;;;;;;7.25;5.97;;;;;15.90;101577.00;;;;4996206;28;20232;-79
2023/04/10 07:13:26;;;;;;;5.53;4.70;;;;;16.00;101569.00;;;;5005298;28;20218;-79
2023/04/10 07:15:53;;;;;;;6.72;5.43;;;;;16.10;101574.00;;;;5006669;28;20209;-78
2023/04/10 07:18:20;;;;;;;8.02;6.57;;;;;16.10;101567.00;;;;5005993;28;20199;-78
2023/04/10 07:20:48;;;;;;;6.80;5.03;;;;;16.20;101562.00;;;;5008696;28;20207;-78
2023/04/10 07:23:16;;;;;;;9.35;5.82;;;;;16.30;101565.00;;;;5008542;28;20213;-79
2023/04/10 07:25:44;;;;;;;6.55;5.30;;;;;16.30;101562.00;;;;5008436;28;20284;-78
2023/04/10 07:28:12;;;;;;;7.20;5.22;;;;;16.40;101552.00;;;;5000984;28;20209;-78
2023/04/10 07:30:39;;;;;;;9.57;6.47;;;;;16.50;101545.00;;;;5003306;28;20197;-78
2023/04/10 07:33:06;;;;;;;6.30;5.07;;;;;16.50;101547.00;;;;5006793;28;20755;-78
2023/04/10 07:35:34;;;;;;;6.95;5.88;;;;;16.60;101543.00;;;;5006886;28;20197;-77
2023/04/10 07:38:02;;;;;;;7.50;5.78;;;;;16.70;101547.00;;;;5006082;28;20299;-76
2023/04/10 07:40:29;;;;;;;10.27;5.53;;;;;16.80;101542.00;;;;5007230;28;20216;-76
2023/04/10 07:42:57;;;;;;;10.48;5.70;;;;;16.90;101540.00;;;;5006658;28;20320;-77
2023/04/10 07:45:26;;;;;;;6.25;5.35;;;;;17.00;101531.00;;;;5002800;28;20193;-77
2023/04/10 07:47:54;;;;;;;6.47;5.03;;;;;17.20;101532.00;;;;5006506;28;20193;-77
2023/04/10 07:50:21;;;;;;;5.97;5.00;;;;;17.30;101536.00;;;;5008113;28;20216;-77
2023/04/10 07:52:49;;;;;;;5.88;5.15;;;;;17.40;101530.00;;;;5006117;28;20197;-78
2023/04/10 07:55:16;;;;;;;6.45;4.93;;;;;17.50;101528.00;;;;5007058;28;20197;-77
2023/04/10 07:57:44;;;;;;;6.88;5.30;;;;;17.60;101526.00;;;;5006846;28;20201;-78
2023/04/10 08:00:14;;;;;;;6.97;5.70;;;;;17.60;101513.00;;;;5000960;28;20602;-77
2023/04/10 08:02:41;;;;;;;6.45;5.32;;;;;17.80;101519.00;;;;5000607;28;20232;-79
2023/04/10 08:05:09;;;;;;;9.15;4.97;;;;;17.80;101507.00;;;;5003349;28;20197;-79
2023/04/10 08:07:37;;;;;;;5.28;4.68;;;;;17.90;101518.00;;;;5008375;28;20201;-79
2023/04/10 08:10:05;;;;;;;6.28;5.18;;;;;17.90;101512.00;;;;5005409;28;20271;-78
2023/04/10 08:12:34;;;;;;;6.95;4.70;;;;;18.00;101509.00;;;;4988335;28;20202;-78
2023/04/10 08:15:01;;;;;;;7.40;5.65;;;;;18.00;101502.00;;;;4993964;28;20194;-78
2023/04/10 08:17:30;;;;;;;5.95;5.10;;;;;18.10;101507.00;;;;5009263;28;20200;-79
2023/04/10 08:19:57;;;;;;;6.55;5.22;;;;;18.10;101503.00;;;;5004258;28;20200;-79
2023/04/10 08:22:24;;;;;;;5.88;4.50;;;;;18.20;101508.00;;;;5008058;28;20221;-78
2023/04/10 08:24:52;;;;;;;5.35;4.80;;;;;18.30;101506.00;;;;5007393;28;20690;-77
2023/04/10 08:27:19;;;;;;;6.47;5.43;;;;;18.30;101505.00;;;;5010083;28;20205;-79
2023/04/10 08:29:46;;;;;;;6.00;4.57;;;;;18.40;101507.00;;;;5008552;28;20189;-79
2023/04/10 08:32:14;;;;;;;6.03;5.03;;;;;18.50;101505.00;;;;5011967;28;20201;-79
2023/04/10 08:34:42;;;;;;;5.97;5.00;;;;;18.60;101494.00;;;;4999496;28;20193;-79
2023/04/10 08:37:11;;;;;;;7.05;5.25;;;;;18.60;101487.00;;;;4996810;28;20212;-78
2023/04/10 08:39:38;;;;;;;6.28;4.60;;;;;18.70;101483.00;;;;5004729;28;20667;-78
2023/04/10 08:42:07;;;;;;;5.90;4.63;;;;;18.80;101480.00;;;;5008755;28;20205;-78
2023/04/10 08:44:35;;;;;;;8.18;5.30;;;;;18.80;101483.00;;;;5005300;28;20220;-79
2023/04/10 08:47:03;;;;;;;6.15;4.63;;;;;18.90;101476.00;;;;5001980;28;20259;-79
2023/04/10 08:49:39;;;;;;;6.50;4.95;;;;;18.90;101487.00;;;;5009768;28;20201;-79
2023/04/10 08:52:11;;;;;;;6.28;5.03;;;;;18.90;101483.00;;;;5007454;28;20197;-79
2023/04/10 08:54:40;;;;;;;6.65;4.82;;;;;18.90;101471.00;;;;5010857;28;20204;-79
2023/04/10 08:57:08;;;;;;;6.00;5.03;;;;;19.00;101474.00;;;;5009840;28;20633;-78
2023/04/10 08:59:35;;;;;;;5.97;4.75;;;;;19.00;101474.00;;;;5008921;28;20205;-80
2023/04/10 09:02:03;;;;;;;5.70;4.80;;;;;19.00;101480.00;;;;5007829;28;20205;-80
2023/04/10 09:04:30;;;;;;;7.32;5.68;;;;;19.00;101471.00;;;;5010270;28;20208;-79
2023/04/10 09:06:58;;;;;;;6.75;5.53;;;;;19.00;101461.00;;;;5009559;28;20201;-80
2023/04/10 09:09:31;;;;;;;7.32;5.70;;;;;19.00;101461.00;;;;5004488;28;20209;-80
2023/04/10 09:12:00;;;;;;;6.80;5.18;;;;;19.10;101459.00;;;;5006360;28;20336;-80
2023/04/10 09:14:29;;;;;;;7.40;5.60;;;;;19.10;101448.00;;;;5008139;28;20200;-81
2023/04/10 09:17:21;;;;;;;5.53;4.93;;;;;19.00;101442.00;;;;5007963;28;20224;-81
2023/04/10 09:19:50;;;;;;;5.97;4.88;;;;;19.10;101444.00;;;;5003049;28;20189;-80
2023/04/10 09:22:18;;;;;;;6.32;5.43;;;;;19.20;101440.00;;;;5009296;28;20209;-80
2023/04/10 09:24:47;;;;;;;6.00;5.40;;;;;19.20;101434.00;;;;5003382;28;20201;-79
2023/04/10 09:27:30;;;;;;;7.70;4.88;;;;;19.10;101437.00;;;;5004955;28;20215;-80
2023/04/10 09:29:57;;;;;;;5.57;4.97;;;;;19.30;101436.00;;;;5004406;28;20198;-80
2023/04/10 09:32:43;;;;;;;7.13;5.90;;;;;19.20;101418.00;;;;5006616;28;20207;-80
2023/04/10 09:35:12;;;;;;;7.05;5.22;;;;;19.30;101413.00;;;;4991645;28;20709;-79
2023/04/10 09:37:41;;;;;;;6.68;5.45;;;;;19.30;101415.00;;;;5006321;28;20204;-79
2023/04/10 09:40:21;;;;;;;6.05;5.03;;;;;19.20;101409.00;;;;5003800;28;20192;-80
2023/04/10 09:42:48;;;;;;;5.18;4.38;;;;;19.40;101399.00;;;;5005960;28;20216;-79
2023/04/10 09:45:18;;;;;;;7.03;5.32;;;;;19.40;101394.00;;;;5005310;28;20193;-78
2023/04/10 09:48:02;;;;;;;5.72;4.65;;;;;19.30;101392.00;;;;5007083;28;20243;-80
2023/04/10 09:50:35;;;;;;;5.97;4.60;;;;;19.40;101382.00;;;;5005520;28;20233;-79
2023/04/10 09:53:02;;;;;;;6.25;5.38;;;;;19.50;101383.00;;;;5009285;28;20197;-80
2023/04/10 09:55:32;;;;;;;7.63;5.35;;;;;19.50;101383.00;;;;5008555;28;20706;-81
2023/04/10 09:58:00;;;;;;;7.25;5.50;;;;;19.60;101371.00;;;;5010363;28;20205;-81
2023/04/10 10:00:27;;;;;;;5.55;4.82;;;;;19.60;101371.00;;;;5006952;28;20229;-82
2023/04/10 10:02:57;;;;;;;5.80;4.50;;;;;19.70;101378.00;;;;5007765;28;20223;-81
2023/04/10 10:05:26;;;;;;;5.30;4.80;;;;;19.80;101371.00;;;;5007858;28;20617;-81
2023/04/10 10:07:54;;;;;;;5.15;4.32;;;;;19.80;101367.00;;;;5007353;28;20193;-81
2023/04/10 10:10:22;;;;;;;8.68;5.07;;;;;19.90;101375.00;;;;5006177;28;20212;-81
2023/04/10 10:12:54;;;;;;;5.30;4.78;;;;;20.00;101372.00;;;;5003045;28;20194;-81
2023/04/10 10:15:28;;;;;;;5.78;5.07;;;;;20.10;101373.00;;;;5003512;28;20201;-81
2023/04/10 10:18:03;;;;;;;5.10;4.50;;;;;20.20;101368.00;;;;5008086;28;20205;-82
2023/04/10 10:20:32;;;;;;;5.88;4.85;;;;;20.30;101357.00;;;;5007973;28;20196;-80
2023/04/10 10:23:02;;;;;;;4.70;3.92;;;;;20.40;101349.00;;;;5008001;28;20228;-80
2023/04/10 10:25:30;;;;;;;5.53;4.07;;;;;20.50;101344.00;;;;4999059;28;20608;-81
2023/04/10 10:28:02;;;;;;;5.93;4.80;;;;;20.50;101339.00;;;;5012292;28;20204;-81
2023/04/10 10:30:31;;;;;;;6.40;4.65;;;;;20.60;101336.00;;;;5004023;28;20205;-81
2023/04/10 10:32:59;;;;;;;7.30;4.68;;;;;20.70;101324.00;;;;5000049;28;20215;-81
2023/04/10 10:35:27;;;;;;;5.72;4.95;;;;;20.80;101320.00;;;;5000995;28;20862;-81
2023/04/10 10:37:55;;;;;;;5.10;4.57;;;;;20.90;101310.00;;;;5008537;28;20201;-81
2023/04/10 10:40:28;;;;;;;5.03;4.32;;;;;20.90;101313.00;;;;5000100;28;20215;-80
2023/04/10 10:43:04;;;;;;;8.13;5.57;;;;;21.00;101312.00;;;;5004796;28;20220;-80
2023/04/10 10:45:36;;;;;;;7.22;4.55;;;;;21.10;101313.00;;;;5004476;28;20701;-80
2023/04/10 10:48:03;;;;;;;5.15;4.40;;;;;21.30;101309.00;;;;5008552;28;20207;-81
2023/04/10 10:50:53;;;;;;;4.63;4.05;;;;;21.20;101308.00;;;;5006606;28;20193;-80
2023/04/10 10:53:38;;;;;;;4.82;4.05;;;;;21.30;101294.00;;;;5002732;28;20196;-81
2023/04/10 10:56:33;;;;;;;7.45;5.03;;;;;21.40;101289.00;;;;5004280;28;20643;-81
2023/04/10 10:59:02;;;;;;;6.22;4.45;;;;;21.50;101297.00;;;;4985533;28;20216;-80
2023/04/10 11:01:29;;;;;;;5.60;4.45;;;;;21.60;101287.00;;;;4998473;28;20233;-82
2023/04/10 11:03:58;;;;;;;5.20;4.68;;;;;21.70;101287.00;;;;5007800;28;20232;-81
2023/04/10 11:06:53;;;;;;;5.97;4.75;;;;;21.60;101281.00;;;;5006567;28;20251;-81
2023/04/10 11:09:53;;;;;;;5.13;4.40;;;;;21.70;101269.00;;;;5002824;28;20214;-81
2023/04/10 11:12:23;;;;;;;4.50;4.05;;;;;21.80;101253.00;;;;5005120;28;20255;-82
2023/04/10 11:15:03;;;;;;;6.00;4.15;;;;;21.80;101255.00;;;;4998790;28;20201;-81
2023/04/10 11:17:51;;;;;;;5.15;4.47;;;;;21.90;101260.00;;;;5003983;28;20276;-81
2023/04/10 11:20:20;;;;;;;5.13;4.15;;;;;22.00;101250.00;;;;4998818;28;20197;-81
2023/04/10 11:23:08;;;;;;;4.75;4.20;;;;;22.00;101245.00;;;;5006247;28;20229;-81
2023/04/10 11:25:54;;;;;;;7.50;4.53;;;;;22.00;101240.00;;;;5005428;28;20205;-82
2023/04/10 11:28:38;;;;;;;4.20;3.80;;;;;22.10;101240.00;;;;5002600;28;20213;-81
2023/04/10 11:31:18;;;;;;;5.07;4.35;;;;;22.20;101232.00;;;;5002475;28;20287;-81
2023/04/10 11:33:46;;;;;;;4.60;3.88;;;;;22.30;101227.00;;;;5000725;28;20831;-80
2023/04/10 11:36:16;;;;;;;5.65;4.00;;;;;22.40;101220.00;;;;5005254;28;20571;-81
2023/04/10 11:38:55;;;;;;;5.95;3.72;;;;;22.40;101213.00;;;;5007929;28;20659;-80
2023/04/10 11:41:26;;;;;;;4.13;3.72;;;;;22.60;101213.00;;;;5003482;28;20243;-80
2023/04/10 11:43:53;;;;;;;3.78;3.30;;;;;22.60;101206.00;;;;5008089;28;20224;-80
2023/04/10 11:46:22;;;;;;;5.95;4.40;;;;;22.70;101210.00;;;;5003278;28;20199;-81
2023/04/10 11:48:53;;;;;;;4.57;4.13;;;;;22.70;101198.00;;;;4995966;28;20197;-81
2023/04/10 11:51:21;;;;;;;4.80;3.95;;;;;22.80;101195.00;;;;5006600;28;20552;-79
2023/04/10 11:53:49;;;;;;;4.70;3.88;;;;;22.90;101191.00;;;;5018288;28;20208;-77
2023/04/10 11:56:21;;;;;;;4.75;3.70;;;;;22.90;101195.00;;;;5011518;28;20208;-77
2023/04/10 11:58:52;;;;;;;5.88;4.15;;;;;23.00;101189.00;;;;5008114;28;20833;-78
2023/04/10 12:01:23;;;;;;;3.35;3.00;;;;;23.10;101188.00;;;;5007421;28;20714;-77
2023/04/10 12:03:52;;;;;;;3.78;3.38;;;;;23.20;101183.00;;;;5009688;28;20224;-78
2023/04/10 12:06:20;;;;;;;8.02;3.25;;;;;23.20;101181.00;;;;5007292;28;20201;-79
2023/04/10 12:08:49;;;;;;;4.40;3.20;;;;;23.30;101172.00;;;;5011044;28;20190;-79
2023/04/10 12:11:20;;;;;;;4.85;2.72;;;;;23.30;101160.00;;;;5007469;28;20224;-79
2023/04/10 12:13:47;;;;;;;3.47;2.90;;;;;23.30;101166.00;;;;5006384;28;20675;-79
2023/04/10 12:16:15;;;;;;;3.13;2.83;;;;;23.30;101166.00;;;;5004153;28;20205;-80
2023/04/10 12:18:44;;;;;;;3.85;2.47;;;;;23.30;101156.00;;;;5009215;28;20193;-80
2023/04/10 12:21:12;;;;;;;2.90;2.58;;;;;23.40;101147.00;;;;5007554;28;20204;-80